sensor_id;sensor_type;location;lat;lon;timestamp;temperature;humidity
62991;DHT22;49084;48.204;16.202;2022-10-30T00:01:52;11.40;99.90
62991;DHT22;49084;48.204;16.202;2022-10-30T00:04:18;11.40;99.90
62991;DHT22;49084;48.204;16.202;2022-10-30T00:06:43;11.30;99.90
62991;DHT22;49084;48.204;16.202;2022-10-30T00:09:09;11.30;99.90
62991;DHT22;49084;48.204;16.202;2022-10-30T00:11:35;11.40;99.90
62991;DHT22;49084;48.204;16.202;2022-10-30T00:14:00;11.40;99.90
62991;DHT22;49084;48.204;16.202;2022-10-30T00:16:26;11.30;99.90
62991;DHT22;49084;48.204;16.202;2022-10-30T00:18:51;11.30;99.90
62991;DHT22;49084;48.204;16.202;2022-10-30T00:21:17;11.30;99.90
62991;DHT22;49084;48.204;16.202;2022-10-30T00:23:49;11.30;99.90
62991;DHT22;49084;48.204;16.202;2022-10-30T00:26:16;11.30;99.90
62991;DHT22;49084;48.204;16.202;2022-10-30T00:28:42;11.30;99.90
62991;DHT22;49084;48.204;16.202;2022-10-30T00:31:07;11.20;99.90
62991;DHT22;49084;48.204;16.202;2022-10-30T00:33:33;11.20;99.90
62991;DHT22;49084;48.204;16.202;2022-10-30T00:35:58;11.30;99.90
62991;DHT22;49084;48.204;16.202;2022-10-30T00:38:24;11.20;99.90
62991;DHT22;49084;48.204;16.202;2022-10-30T00:40:49;11.20;99.90
62991;DHT22;49084;48.204;16.202;2022-10-30T00:45:52;11.10;99.90
62991;DHT22;49084;48.204;16.202;2022-10-30T00:48:18;11.00;99.90
62991;DHT22;49084;48.204;16.202;2022-10-30T00:50:45;11.10;99.90
62991;DHT22;49084;48.204;16.202;2022-10-30T00:53:15;11.00;99.90
62991;DHT22;49084;48.204;16.202;2022-10-30T00:55:53;11.00;99.90
62991;DHT22;49084;48.204;16.202;2022-10-30T00:58:21;10.90;99.90
62991;DHT22;49084;48.204;16.202;2022-10-30T01:00:49;10.90;99.90
62991;DHT22;49084;48.204;16.202;2022-10-30T01:03:16;10.80;99.90
62991;DHT22;49084;48.204;16.202;2022-10-30T01:05:43;10.80;99.90
62991;DHT22;49084;48.204;16.202;2022-10-30T01:08:11;10.80;99.90
62991;DHT22;49084;48.204;16.202;2022-10-30T01:10:37;10.80;99.90
62991;DHT22;49084;48.204;16.202;2022-10-30T01:13:02;10.80;99.90
62991;DHT22;49084;48.204;16.202;2022-10-30T01:15:36;10.80;99.90
62991;DHT22;49084;48.204;16.202;2022-10-30T01:23:34;10.80;99.90
62991;DHT22;49084;48.204;16.202;2022-10-30T01:26:17;10.80;99.90
62991;DHT22;49084;48.204;16.202;2022-10-30T01:31:50;10.80;99.90
62991;DHT22;49084;48.204;16.202;2022-10-30T01:34:19;10.80;99.90
62991;DHT22;49084;48.204;16.202;2022-10-30T01:37:19;10.90;99.90
62991;DHT22;49084;48.204;16.202;2022-10-30T01:39:37;10.80;99.90
62991;DHT22;49084;48.204;16.202;2022-10-30T01:42:08;10.90;99.90
62991;DHT22;49084;48.204;16.202;2022-10-30T01:44:33;10.90;99.90
62991;DHT22;49084;48.204;16.202;2022-10-30T01:54:52;10.80;99.90
62991;DHT22;49084;48.204;16.202;2022-10-30T01:57:25;10.80;99.90
62991;DHT22;49084;48.204;16.202;2022-10-30T02:02:31;10.80;99.90
62991;DHT22;49084;48.204;16.202;2022-10-30T02:04:57;10.70;99.90
62991;DHT22;49084;48.204;16.202;2022-10-30T02:07:23;10.70;99.90
62991;DHT22;49084;48.204;16.202;2022-10-30T02:09:50;10.70;99.90
62991;DHT22;49084;48.204;16.202;2022-10-30T02:12:15;10.70;99.90
62991;DHT22;49084;48.204;16.202;2022-10-30T02:14:43;10.70;99.90
62991;DHT22;49084;48.204;16.202;2022-10-30T02:17:09;10.70;99.90
62991;DHT22;49084;48.204;16.202;2022-10-30T02:19:36;10.60;99.90
62991;DHT22;49084;48.204;16.202;2022-10-30T02:22:01;10.60;99.90
62991;DHT22;49084;48.204;16.202;2022-10-30T02:24:27;10.60;99.90
62991;DHT22;49084;48.204;16.202;2022-10-30T02:26:53;10.60;99.90
62991;DHT22;49084;48.204;16.202;2022-10-30T02:29:18;10.60;99.90
62991;DHT22;49084;48.204;16.202;2022-10-30T02:31:46;10.50;99.90
62991;DHT22;49084;48.204;16.202;2022-10-30T02:34:11;10.50;99.90
62991;DHT22;49084;48.204;16.202;2022-10-30T02:36:37;10.50;99.90
62991;DHT22;49084;48.204;16.202;2022-10-30T02:39:03;10.50;99.90
62991;DHT22;49084;48.204;16.202;2022-10-30T02:41:28;10.50;99.90
62991;DHT22;49084;48.204;16.202;2022-10-30T02:43:54;10.50;99.90
62991;DHT22;49084;48.204;16.202;2022-10-30T02:46:19;10.40;99.90
62991;DHT22;49084;48.204;16.202;2022-10-30T02:48:45;10.50;99.90
62991;DHT22;49084;48.204;16.202;2022-10-30T02:51:10;10.50;99.90
62991;DHT22;49084;48.204;16.202;2022-10-30T02:53:36;10.50;99.90
62991;DHT22;49084;48.204;16.202;2022-10-30T02:56:06;10.50;99.90
62991;DHT22;49084;48.204;16.202;2022-10-30T02:58:31;10.50;99.90
62991;DHT22;49084;48.204;16.202;2022-10-30T03:00:57;10.40;99.90
62991;DHT22;49084;48.204;16.202;2022-10-30T03:03:22;10.40;99.90
62991;DHT22;49084;48.204;16.202;2022-10-30T03:05:48;10.30;99.90
62991;DHT22;49084;48.204;16.202;2022-10-30T03:08:13;10.30;99.90
62991;DHT22;49084;48.204;16.202;2022-10-30T03:10:39;10.30;99.90
62991;DHT22;49084;48.204;16.202;2022-10-30T03:13:04;10.30;99.90
62991;DHT22;49084;48.204;16.202;2022-10-30T03:15:30;10.30;99.90
62991;DHT22;49084;48.204;16.202;2022-10-30T03:17:55;10.20;99.90
62991;DHT22;49084;48.204;16.202;2022-10-30T03:20:21;10.30;99.90
62991;DHT22;49084;48.204;16.202;2022-10-30T03:22:46;10.20;99.90
62991;DHT22;49084;48.204;16.202;2022-10-30T03:25:12;10.30;99.90
62991;DHT22;49084;48.204;16.202;2022-10-30T03:27:37;10.20;99.90
62991;DHT22;49084;48.204;16.202;2022-10-30T03:30:03;10.10;99.90
62991;DHT22;49084;48.204;16.202;2022-10-30T03:32:29;10.10;99.90
62991;DHT22;49084;48.204;16.202;2022-10-30T03:34:54;10.10;99.90
62991;DHT22;49084;48.204;16.202;2022-10-30T03:37:20;10.10;99.90
62991;DHT22;49084;48.204;16.202;2022-10-30T03:39:45;10.10;99.90
62991;DHT22;49084;48.204;16.202;2022-10-30T03:42:11;10.10;99.90
62991;DHT22;49084;48.204;16.202;2022-10-30T03:44:36;10.10;99.90
62991;DHT22;49084;48.204;16.202;2022-10-30T03:47:02;10.10;99.90
62991;DHT22;49084;48.204;16.202;2022-10-30T03:49:27;10.10;99.90
62991;DHT22;49084;48.204;16.202;2022-10-30T03:51:53;10.10;99.90
62991;DHT22;49084;48.204;16.202;2022-10-30T03:54:18;10.10;99.90
62991;DHT22;49084;48.204;16.202;2022-10-30T03:56:44;10.10;99.90
62991;DHT22;49084;48.204;16.202;2022-10-30T03:59:10;10.00;99.90
62991;DHT22;49084;48.204;16.202;2022-10-30T04:01:36;10.00;99.90
62991;DHT22;49084;48.204;16.202;2022-10-30T04:04:02;10.00;99.90
62991;DHT22;49084;48.204;16.202;2022-10-30T04:06:27;10.00;99.90
62991;DHT22;49084;48.204;16.202;2022-10-30T04:08:53;10.00;99.90
62991;DHT22;49084;48.204;16.202;2022-10-30T04:11:19;10.00;99.90
62991;DHT22;49084;48.204;16.202;2022-10-30T04:13:44;10.00;99.90
62991;DHT22;49084;48.204;16.202;2022-10-30T04:16:10;10.00;99.90
62991;DHT22;49084;48.204;16.202;2022-10-30T04:18:36;10.10;99.90
62991;DHT22;49084;48.204;16.202;2022-10-30T04:21:01;10.10;99.90
62991;DHT22;49084;48.204;16.202;2022-10-30T04:23:27;10.10;99.90
62991;DHT22;49084;48.204;16.202;2022-10-30T04:25:52;10.10;99.90
62991;DHT22;49084;48.204;16.202;2022-10-30T04:28:18;10.00;99.90
62991;DHT22;49084;48.204;16.202;2022-10-30T04:30:45;10.00;99.90
62991;DHT22;49084;48.204;16.202;2022-10-30T04:33:11;10.00;99.90
62991;DHT22;49084;48.204;16.202;2022-10-30T04:35:38;9.90;99.90
62991;DHT22;49084;48.204;16.202;2022-10-30T04:38:04;9.90;99.90
62991;DHT22;49084;48.204;16.202;2022-10-30T04:40:31;9.90;99.90
62991;DHT22;49084;48.204;16.202;2022-10-30T04:42:57;9.90;99.90
62991;DHT22;49084;48.204;16.202;2022-10-30T04:45:23;9.90;99.90
62991;DHT22;49084;48.204;16.202;2022-10-30T04:47:49;9.80;99.90
62991;DHT22;49084;48.204;16.202;2022-10-30T04:50:14;9.80;99.90
62991;DHT22;49084;48.204;16.202;2022-10-30T04:52:40;9.80;99.90
62991;DHT22;49084;48.204;16.202;2022-10-30T04:55:06;9.70;99.90
62991;DHT22;49084;48.204;16.202;2022-10-30T04:57:31;9.80;99.90
62991;DHT22;49084;48.204;16.202;2022-10-30T04:59:57;9.70;99.90
62991;DHT22;49084;48.204;16.202;2022-10-30T05:02:23;9.70;99.90
62991;DHT22;49084;48.204;16.202;2022-10-30T05:04:48;9.70;99.90
62991;DHT22;49084;48.204;16.202;2022-10-30T05:07:14;9.70;99.90
62991;DHT22;49084;48.204;16.202;2022-10-30T05:09:40;9.70;99.90
62991;DHT22;49084;48.204;16.202;2022-10-30T05:12:05;9.70;99.90
62991;DHT22;49084;48.204;16.202;2022-10-30T05:14:31;9.80;99.90
62991;DHT22;49084;48.204;16.202;2022-10-30T05:16:57;9.80;99.90
62991;DHT22;49084;48.204;16.202;2022-10-30T05:19:22;9.80;99.90
62991;DHT22;49084;48.204;16.202;2022-10-30T05:21:48;9.80;99.90
62991;DHT22;49084;48.204;16.202;2022-10-30T05:24:14;9.70;99.90
62991;DHT22;49084;48.204;16.202;2022-10-30T05:26:39;9.70;99.90
62991;DHT22;49084;48.204;16.202;2022-10-30T05:29:06;9.70;99.90
62991;DHT22;49084;48.204;16.202;2022-10-30T05:31:31;9.70;99.90
62991;DHT22;49084;48.204;16.202;2022-10-30T05:33:57;9.60;99.90
62991;DHT22;49084;48.204;16.202;2022-10-30T05:36:22;9.60;99.90
62991;DHT22;49084;48.204;16.202;2022-10-30T05:38:48;9.60;99.90
62991;DHT22;49084;48.204;16.202;2022-10-30T05:41:14;9.50;99.90
62991;DHT22;49084;48.204;16.202;2022-10-30T05:43:39;9.40;99.90
62991;DHT22;49084;48.204;16.202;2022-10-30T05:46:05;9.40;99.90
62991;DHT22;49084;48.204;16.202;2022-10-30T05:48:30;9.30;99.90
62991;DHT22;49084;48.204;16.202;2022-10-30T05:50:56;9.30;99.90
62991;DHT22;49084;48.204;16.202;2022-10-30T05:53:22;9.20;99.90
62991;DHT22;49084;48.204;16.202;2022-10-30T05:55:47;9.10;99.90
62991;DHT22;49084;48.204;16.202;2022-10-30T05:58:13;9.10;99.90
62991;DHT22;49084;48.204;16.202;2022-10-30T06:00:38;7.10;99.90
62991;DHT22;49084;48.204;16.202;2022-10-30T06:03:09;9.10;99.90
62991;DHT22;49084;48.204;16.202;2022-10-30T06:05:35;9.10;99.90
62991;DHT22;49084;48.204;16.202;2022-10-30T06:08:01;9.10;99.90
62991;DHT22;49084;48.204;16.202;2022-10-30T06:10:27;9.10;99.90
62991;DHT22;49084;48.204;16.202;2022-10-30T06:12:53;9.20;99.90
62991;DHT22;49084;48.204;16.202;2022-10-30T06:15:19;9.20;99.90
62991;DHT22;49084;48.204;16.202;2022-10-30T06:17:44;9.30;99.90
62991;DHT22;49084;48.204;16.202;2022-10-30T06:20:10;9.30;99.90
62991;DHT22;49084;48.204;16.202;2022-10-30T06:22:36;9.40;99.90
62991;DHT22;49084;48.204;16.202;2022-10-30T06:25:01;9.50;99.90
62991;DHT22;49084;48.204;16.202;2022-10-30T06:27:27;9.50;99.90
62991;DHT22;49084;48.204;16.202;2022-10-30T06:29:52;9.60;99.90
62991;DHT22;49084;48.204;16.202;2022-10-30T06:32:19;9.60;99.90
62991;DHT22;49084;48.204;16.202;2022-10-30T06:34:45;9.70;99.90
62991;DHT22;49084;48.204;16.202;2022-10-30T06:37:10;9.70;99.90
62991;DHT22;49084;48.204;16.202;2022-10-30T06:39:36;9.70;99.90
62991;DHT22;49084;48.204;16.202;2022-10-30T06:42:01;9.70;99.90
62991;DHT22;49084;48.204;16.202;2022-10-30T06:44:27;9.70;99.90
62991;DHT22;49084;48.204;16.202;2022-10-30T06:46:52;9.80;99.90
62991;DHT22;49084;48.204;16.202;2022-10-30T06:49:18;9.80;99.90
62991;DHT22;49084;48.204;16.202;2022-10-30T06:51:45;9.90;99.90
62991;DHT22;49084;48.204;16.202;2022-10-30T06:54:11;10.00;99.90
62991;DHT22;49084;48.204;16.202;2022-10-30T06:56:36;10.00;99.90
62991;DHT22;49084;48.204;16.202;2022-10-30T06:59:02;10.00;99.90
62991;DHT22;49084;48.204;16.202;2022-10-30T07:01:27;10.10;99.90
62991;DHT22;49084;48.204;16.202;2022-10-30T07:03:53;10.10;99.90
62991;DHT22;49084;48.204;16.202;2022-10-30T07:06:18;10.10;99.90
62991;DHT22;49084;48.204;16.202;2022-10-30T07:08:45;10.10;99.90
62991;DHT22;49084;48.204;16.202;2022-10-30T07:11:10;10.20;99.90
62991;DHT22;49084;48.204;16.202;2022-10-30T07:13:36;10.30;99.90
62991;DHT22;49084;48.204;16.202;2022-10-30T07:16:01;10.40;99.90
62991;DHT22;49084;48.204;16.202;2022-10-30T07:18:27;10.40;99.90
62991;DHT22;49084;48.204;16.202;2022-10-30T07:20:53;10.50;99.90
62991;DHT22;49084;48.204;16.202;2022-10-30T07:23:19;10.60;99.90
62991;DHT22;49084;48.204;16.202;2022-10-30T07:25:44;10.60;99.90
62991;DHT22;49084;48.204;16.202;2022-10-30T07:28:10;10.60;99.90
62991;DHT22;49084;48.204;16.202;2022-10-30T07:30:35;10.50;99.90
62991;DHT22;49084;48.204;16.202;2022-10-30T07:33:02;10.60;99.90
62991;DHT22;49084;48.204;16.202;2022-10-30T07:35:28;10.60;99.90
62991;DHT22;49084;48.204;16.202;2022-10-30T07:37:54;10.60;99.90
62991;DHT22;49084;48.204;16.202;2022-10-30T07:40:19;10.60;99.90
62991;DHT22;49084;48.204;16.202;2022-10-30T07:42:45;10.60;99.90
62991;DHT22;49084;48.204;16.202;2022-10-30T07:45:11;10.60;99.90
62991;DHT22;49084;48.204;16.202;2022-10-30T07:47:40;10.70;99.90
62991;DHT22;49084;48.204;16.202;2022-10-30T07:50:05;10.70;99.90
62991;DHT22;49084;48.204;16.202;2022-10-30T07:52:31;10.80;99.90
62991;DHT22;49084;48.204;16.202;2022-10-30T07:54:57;10.80;99.90
62991;DHT22;49084;48.204;16.202;2022-10-30T07:57:22;10.90;99.90
62991;DHT22;49084;48.204;16.202;2022-10-30T07:59:48;11.00;99.90
62991;DHT22;49084;48.204;16.202;2022-10-30T08:02:13;11.10;99.90
62991;DHT22;49084;48.204;16.202;2022-10-30T08:04:39;11.20;99.90
62991;DHT22;49084;48.204;16.202;2022-10-30T08:07:04;11.20;99.90
62991;DHT22;49084;48.204;16.202;2022-10-30T08:09:30;11.20;99.90
62991;DHT22;49084;48.204;16.202;2022-10-30T08:11:55;11.20;99.90
62991;DHT22;49084;48.204;16.202;2022-10-30T08:14:21;11.10;99.90
62991;DHT22;49084;48.204;16.202;2022-10-30T08:16:46;11.10;99.90
62991;DHT22;49084;48.204;16.202;2022-10-30T08:19:12;11.20;99.90
62991;DHT22;49084;48.204;16.202;2022-10-30T08:21:37;11.30;99.90
62991;DHT22;49084;48.204;16.202;2022-10-30T08:24:03;11.40;99.90
62991;DHT22;49084;48.204;16.202;2022-10-30T08:26:28;11.40;99.90
62991;DHT22;49084;48.204;16.202;2022-10-30T08:28:54;11.50;99.90
62991;DHT22;49084;48.204;16.202;2022-10-30T08:31:19;11.50;99.90
62991;DHT22;49084;48.204;16.202;2022-10-30T08:33:45;11.40;99.90
62991;DHT22;49084;48.204;16.202;2022-10-30T08:36:10;11.50;99.90
62991;DHT22;49084;48.204;16.202;2022-10-30T08:38:36;11.50;99.90
62991;DHT22;49084;48.204;16.202;2022-10-30T08:41:02;11.60;99.90
62991;DHT22;49084;48.204;16.202;2022-10-30T08:43:27;11.60;99.90
62991;DHT22;49084;48.204;16.202;2022-10-30T08:45:53;11.70;99.90
62991;DHT22;49084;48.204;16.202;2022-10-30T08:48:21;11.80;99.90
62991;DHT22;49084;48.204;16.202;2022-10-30T08:50:47;11.90;99.90
62991;DHT22;49084;48.204;16.202;2022-10-30T08:53:13;11.90;99.90
62991;DHT22;49084;48.204;16.202;2022-10-30T08:55:38;11.90;99.90
62991;DHT22;49084;48.204;16.202;2022-10-30T08:58:04;12.00;99.90
62991;DHT22;49084;48.204;16.202;2022-10-30T09:00:29;12.00;99.90
62991;DHT22;49084;48.204;16.202;2022-10-30T09:02:55;12.10;99.90
62991;DHT22;49084;48.204;16.202;2022-10-30T09:05:20;12.20;99.90
62991;DHT22;49084;48.204;16.202;2022-10-30T09:07:46;12.20;99.90
62991;DHT22;49084;48.204;16.202;2022-10-30T09:10:12;12.30;99.90
62991;DHT22;49084;48.204;16.202;2022-10-30T09:12:38;12.50;99.90
62991;DHT22;49084;48.204;16.202;2022-10-30T09:15:03;12.40;99.90
62991;DHT22;49084;48.204;16.202;2022-10-30T09:17:29;12.40;99.90
62991;DHT22;49084;48.204;16.202;2022-10-30T09:19:55;12.50;99.90
62991;DHT22;49084;48.204;16.202;2022-10-30T09:22:20;12.60;99.90
62991;DHT22;49084;48.204;16.202;2022-10-30T09:24:46;12.60;99.90
62991;DHT22;49084;48.204;16.202;2022-10-30T09:27:11;12.70;99.90
62991;DHT22;49084;48.204;16.202;2022-10-30T09:29:37;12.80;99.90
62991;DHT22;49084;48.204;16.202;2022-10-30T09:32:02;12.90;99.90
62991;DHT22;49084;48.204;16.202;2022-10-30T09:34:29;12.90;99.90
62991;DHT22;49084;48.204;16.202;2022-10-30T09:36:55;12.90;99.90
62991;DHT22;49084;48.204;16.202;2022-10-30T09:39:20;12.90;99.90
62991;DHT22;49084;48.204;16.202;2022-10-30T09:51:38;13.00;99.90
62991;DHT22;49084;48.204;16.202;2022-10-30T09:56:36;13.30;99.90
62991;DHT22;49084;48.204;16.202;2022-10-30T10:01:48;13.20;99.90
62991;DHT22;49084;48.204;16.202;2022-10-30T10:04:27;13.20;99.90
62991;DHT22;49084;48.204;16.202;2022-10-30T10:07:03;13.20;99.90
62991;DHT22;49084;48.204;16.202;2022-10-30T10:09:30;13.40;99.90
62991;DHT22;49084;48.204;16.202;2022-10-30T10:12:40;13.70;99.90
62991;DHT22;49084;48.204;16.202;2022-10-30T10:14:46;13.90;99.90
62991;DHT22;49084;48.204;16.202;2022-10-30T10:17:12;14.20;99.90
62991;DHT22;49084;48.204;16.202;2022-10-30T10:19:48;14.30;99.90
62991;DHT22;49084;48.204;16.202;2022-10-30T10:22:21;14.30;99.90
62991;DHT22;49084;48.204;16.202;2022-10-30T10:24:48;14.40;99.90
62991;DHT22;49084;48.204;16.202;2022-10-30T10:32:24;14.40;99.90
62991;DHT22;49084;48.204;16.202;2022-10-30T10:38:00;14.50;99.90
62991;DHT22;49084;48.204;16.202;2022-10-30T10:40:32;14.70;99.90
62991;DHT22;49084;48.204;16.202;2022-10-30T10:45:40;14.30;99.90
62991;DHT22;49084;48.204;16.202;2022-10-30T10:48:30;14.30;99.90
62991;DHT22;49084;48.204;16.202;2022-10-30T10:53:39;14.70;99.90
62991;DHT22;49084;48.204;16.202;2022-10-30T10:56:06;14.80;99.90
62991;DHT22;49084;48.204;16.202;2022-10-30T10:58:35;14.90;99.90
62991;DHT22;49084;48.204;16.202;2022-10-30T11:01:04;14.90;99.90
62991;DHT22;49084;48.204;16.202;2022-10-30T11:03:51;14.90;99.90
62991;DHT22;49084;48.204;16.202;2022-10-30T11:06:19;15.10;99.90
62991;DHT22;49084;48.204;16.202;2022-10-30T11:08:46;15.20;99.90
62991;DHT22;49084;48.204;16.202;2022-10-30T11:11:11;15.20;99.90
62991;DHT22;49084;48.204;16.202;2022-10-30T11:13:38;15.20;99.90
62991;DHT22;49084;48.204;16.202;2022-10-30T11:18:29;15.20;99.90
62991;DHT22;49084;48.204;16.202;2022-10-30T11:21:12;15.10;99.90
62991;DHT22;49084;48.204;16.202;2022-10-30T11:23:41;15.20;99.90
62991;DHT22;49084;48.204;16.202;2022-10-30T11:28:49;15.10;99.90
62991;DHT22;49084;48.204;16.202;2022-10-30T11:33:43;15.10;99.90
62991;DHT22;49084;48.204;16.202;2022-10-30T11:36:09;15.00;99.90
62991;DHT22;49084;48.204;16.202;2022-10-30T11:38:34;14.90;99.90
62991;DHT22;49084;48.204;16.202;2022-10-30T11:41:00;14.90;99.90
62991;DHT22;49084;48.204;16.202;2022-10-30T11:43:26;14.90;99.90
62991;DHT22;49084;48.204;16.202;2022-10-30T11:45:52;14.80;99.90
62991;DHT22;49084;48.204;16.202;2022-10-30T11:48:28;14.70;99.90
62991;DHT22;49084;48.204;16.202;2022-10-30T11:50:58;14.60;99.90
62991;DHT22;49084;48.204;16.202;2022-10-30T11:53:26;14.50;99.90
62991;DHT22;49084;48.204;16.202;2022-10-30T11:55:55;14.50;99.90
62991;DHT22;49084;48.204;16.202;2022-10-30T11:58:29;14.60;99.90
62991;DHT22;49084;48.204;16.202;2022-10-30T12:01:03;14.60;99.90
62991;DHT22;49084;48.204;16.202;2022-10-30T12:03:39;14.70;99.90
62991;DHT22;49084;48.204;16.202;2022-10-30T12:11:30;15.50;99.90
62991;DHT22;49084;48.204;16.202;2022-10-30T12:13:56;15.60;99.90
62991;DHT22;49084;48.204;16.202;2022-10-30T12:16:22;15.70;99.90
62991;DHT22;49084;48.204;16.202;2022-10-30T12:21:23;15.80;99.90
62991;DHT22;49084;48.204;16.202;2022-10-30T12:23:56;15.80;99.90
62991;DHT22;49084;48.204;16.202;2022-10-30T12:26:23;15.70;99.90
62991;DHT22;49084;48.204;16.202;2022-10-30T12:28:52;15.60;99.90
62991;DHT22;49084;48.204;16.202;2022-10-30T12:31:24;15.60;99.90
62991;DHT22;49084;48.204;16.202;2022-10-30T12:36:36;15.60;99.90
62991;DHT22;49084;48.204;16.202;2022-10-30T12:39:10;15.70;99.90
62991;DHT22;49084;48.204;16.202;2022-10-30T12:47:01;15.70;99.90
62991;DHT22;49084;48.204;16.202;2022-10-30T12:54:49;15.70;99.90
62991;DHT22;49084;48.204;16.202;2022-10-30T12:57:20;15.50;99.90
62991;DHT22;49084;48.204;16.202;2022-10-30T12:59:54;15.50;99.90
62991;DHT22;49084;48.204;16.202;2022-10-30T13:02:31;15.40;99.90
62991;DHT22;49084;48.204;16.202;2022-10-30T13:05:01;15.10;99.90
62991;DHT22;49084;48.204;16.202;2022-10-30T13:07:37;15.10;99.90
62991;DHT22;49084;48.204;16.202;2022-10-30T13:10:24;15.00;99.90
62991;DHT22;49084;48.204;16.202;2022-10-30T13:12:51;14.70;99.90
62991;DHT22;49084;48.204;16.202;2022-10-30T13:15:23;14.60;99.90
62991;DHT22;49084;48.204;16.202;2022-10-30T13:17:50;14.40;99.90
62991;DHT22;49084;48.204;16.202;2022-10-30T13:20:16;14.30;99.90
62991;DHT22;49084;48.204;16.202;2022-10-30T13:25:24;13.90;99.90
62991;DHT22;49084;48.204;16.202;2022-10-30T13:30:39;13.80;99.90
62991;DHT22;49084;48.204;16.202;2022-10-30T13:33:18;13.70;99.90
62991;DHT22;49084;48.204;16.202;2022-10-30T13:38:36;13.60;99.90
62991;DHT22;49084;48.204;16.202;2022-10-30T13:41:08;13.60;99.90
62991;DHT22;49084;48.204;16.202;2022-10-30T13:53:28;13.70;99.90
62991;DHT22;49084;48.204;16.202;2022-10-30T13:55:55;13.60;99.90
62991;DHT22;49084;48.204;16.202;2022-10-30T14:01:00;13.70;99.90
62991;DHT22;49084;48.204;16.202;2022-10-30T14:11:11;13.50;99.90
62991;DHT22;49084;48.204;16.202;2022-10-30T14:13:44;13.40;99.90
62991;DHT22;49084;48.204;16.202;2022-10-30T14:18:58;13.40;99.90
62991;DHT22;49084;48.204;16.202;2022-10-30T14:21:29;13.30;99.90
62991;DHT22;49084;48.204;16.202;2022-10-30T14:27:07;13.20;99.90
62991;DHT22;49084;48.204;16.202;2022-10-30T14:32:00;13.00;99.90
62991;DHT22;49084;48.204;16.202;2022-10-30T14:39:53;12.90;99.90
62991;DHT22;49084;48.204;16.202;2022-10-30T14:47:22;12.70;99.90
62991;DHT22;49084;48.204;16.202;2022-10-30T14:57:44;12.50;99.90
62991;DHT22;49084;48.204;16.202;2022-10-30T15:02:52;12.50;99.90
62991;DHT22;49084;48.204;16.202;2022-10-30T15:05:27;12.40;99.90
62991;DHT22;49084;48.204;16.202;2022-10-30T15:08:01;12.40;99.90
62991;DHT22;49084;48.204;16.202;2022-10-30T15:10:31;12.40;99.90
62991;DHT22;49084;48.204;16.202;2022-10-30T15:15:22;12.40;99.90
62991;DHT22;49084;48.204;16.202;2022-10-30T15:17:48;12.40;99.90
62991;DHT22;49084;48.204;16.202;2022-10-30T15:20:22;12.40;99.90
62991;DHT22;49084;48.204;16.202;2022-10-30T15:22:52;12.40;99.90
62991;DHT22;49084;48.204;16.202;2022-10-30T15:25:18;12.30;99.90
62991;DHT22;49084;48.204;16.202;2022-10-30T15:27:45;12.30;99.90
62991;DHT22;49084;48.204;16.202;2022-10-30T15:30:16;12.30;99.90
62991;DHT22;49084;48.204;16.202;2022-10-30T15:32:41;12.20;99.90
62991;DHT22;49084;48.204;16.202;2022-10-30T15:35:15;12.20;99.90
62991;DHT22;49084;48.204;16.202;2022-10-30T15:40:26;12.10;99.90
62991;DHT22;49084;48.204;16.202;2022-10-30T15:42:52;12.20;99.90
62991;DHT22;49084;48.204;16.202;2022-10-30T15:45:19;12.10;99.90
62991;DHT22;49084;48.204;16.202;2022-10-30T15:50:30;12.10;99.90
62991;DHT22;49084;48.204;16.202;2022-10-30T15:52:56;12.10;99.90
62991;DHT22;49084;48.204;16.202;2022-10-30T15:55:27;12.10;99.90
62991;DHT22;49084;48.204;16.202;2022-10-30T15:57:53;12.00;99.90
62991;DHT22;49084;48.204;16.202;2022-10-30T16:00:27;12.00;99.90
62991;DHT22;49084;48.204;16.202;2022-10-30T16:03:01;12.00;99.90
62991;DHT22;49084;48.204;16.202;2022-10-30T16:05:27;11.90;99.90
62991;DHT22;49084;48.204;16.202;2022-10-30T16:07:54;11.70;99.90
62991;DHT22;49084;48.204;16.202;2022-10-30T16:10:19;11.60;99.90
62991;DHT22;49084;48.204;16.202;2022-10-30T16:12:46;11.60;99.90
62991;DHT22;49084;48.204;16.202;2022-10-30T16:15:26;11.60;99.90
62991;DHT22;49084;48.204;16.202;2022-10-30T16:18:03;11.60;99.90
62991;DHT22;49084;48.204;16.202;2022-10-30T16:20:30;11.50;99.90
62991;DHT22;49084;48.204;16.202;2022-10-30T16:22:55;11.60;99.90
62991;DHT22;49084;48.204;16.202;2022-10-30T16:25:21;11.50;99.90
62991;DHT22;49084;48.204;16.202;2022-10-30T16:27:47;11.50;99.90
62991;DHT22;49084;48.204;16.202;2022-10-30T16:30:13;11.50;99.90
62991;DHT22;49084;48.204;16.202;2022-10-30T16:32:39;11.50;99.90
62991;DHT22;49084;48.204;16.202;2022-10-30T16:35:05;11.50;99.90
62991;DHT22;49084;48.204;16.202;2022-10-30T16:37:35;11.50;99.90
62991;DHT22;49084;48.204;16.202;2022-10-30T16:40:02;11.50;99.90
62991;DHT22;49084;48.204;16.202;2022-10-30T16:42:28;11.50;99.90
62991;DHT22;49084;48.204;16.202;2022-10-30T16:45:43;11.40;99.90
62991;DHT22;49084;48.204;16.202;2022-10-30T16:47:43;11.40;99.90
62991;DHT22;49084;48.204;16.202;2022-10-30T16:50:11;11.40;99.90
62991;DHT22;49084;48.204;16.202;2022-10-30T16:52:38;11.40;99.90
62991;DHT22;49084;48.204;16.202;2022-10-30T16:55:08;11.40;99.90
62991;DHT22;49084;48.204;16.202;2022-10-30T16:57:40;11.40;99.90
62991;DHT22;49084;48.204;16.202;2022-10-30T17:00:06;11.40;99.90
62991;DHT22;49084;48.204;16.202;2022-10-30T17:02:42;11.40;99.90
62991;DHT22;49084;48.204;16.202;2022-10-30T17:05:10;11.40;99.90
62991;DHT22;49084;48.204;16.202;2022-10-30T17:07:37;11.40;99.90
62991;DHT22;49084;48.204;16.202;2022-10-30T17:10:03;11.40;99.90
62991;DHT22;49084;48.204;16.202;2022-10-30T17:12:28;11.40;99.90
62991;DHT22;49084;48.204;16.202;2022-10-30T17:15:13;11.40;99.90
62991;DHT22;49084;48.204;16.202;2022-10-30T17:17:40;11.30;99.90
62991;DHT22;49084;48.204;16.202;2022-10-30T17:22:38;11.30;99.90
62991;DHT22;49084;48.204;16.202;2022-10-30T17:27:48;11.20;99.90
62991;DHT22;49084;48.204;16.202;2022-10-30T17:30:34;11.20;99.90
62991;DHT22;49084;48.204;16.202;2022-10-30T17:35:22;11.10;99.90
62991;DHT22;49084;48.204;16.202;2022-10-30T17:37:48;11.10;99.90
62991;DHT22;49084;48.204;16.202;2022-10-30T17:40:14;11.10;99.90
62991;DHT22;49084;48.204;16.202;2022-10-30T17:42:40;11.10;99.90
62991;DHT22;49084;48.204;16.202;2022-10-30T17:45:08;11.10;99.90
62991;DHT22;49084;48.204;16.202;2022-10-30T17:47:36;11.10;99.90
62991;DHT22;49084;48.204;16.202;2022-10-30T17:50:03;11.10;99.90
62991;DHT22;49084;48.204;16.202;2022-10-30T17:52:31;11.10;99.90